»·PEaware :: N172TT KLAX-KSAN

N172TT :: KLAX-KSAN

FLIGHT INFORMATION

Flight Status: Arrived
Operator: Privately registered:
United States
More flights under this callsign
Pilot: Thomas T. (19955)
Aircraft: CESSNA 172 SKYHAWK
(C172)
More flights by this aircraft type
Origin: KLAX Los Angeles Intl
United States
Destination: KSAN San Diego Intl-Lindbergh
United States
More flights between these airports :: More routes between these airports
Route: +
File this flight plan on PilotEdge
Remarks:
Altitude:
(Current/Filed)
5,500ft
Speed:
(Current/Filed)
0kts
Departed: 31-Aug-18 01:48 PM
Arrived: 31-Aug-18 03:00 PM
Distance/Time
Traveled:
95nm/1:11
Distance/Time
To Go:
Arrived

Flight Plot

Page will automatically refresh every two minutes.


Map Options




Map Legend


Flown Route
Filed Route
Departure Airport
Arrival Airport
Navaid (VOR, NDB)
Fix

Horizontal Profiles

Position Reports

Time Latitude Longitude Heading Altitude Ground
Speed
31-Aug-18 13:39 33.933263 -118.397438 264 109ft 0kts
31-Aug-18 13:40 33.933263 -118.397438 264 109ft 0kts
31-Aug-18 13:41 33.933263 -118.397438 264 109ft 0kts
31-Aug-18 13:42 33.933263 -118.397438 264 109ft 0kts
31-Aug-18 13:43 33.933671 -118.397959 331 109ft 9kts
31-Aug-18 13:44 33.934954 -118.394198 84 104ft 19kts
31-Aug-18 13:45 33.935643 -118.387436 83 99ft 21kts
31-Aug-18 13:46 33.936384 -118.382908 1 96ft 0kts
31-Aug-18 13:46 33.936389 -118.382907 1 96ft 0kts
31-Aug-18 13:48 33.936389 -118.382907 1 96ft 0kts
31-Aug-18 13:48 33.936389 -118.382907 1 96ft 0kts
31-Aug-18 13:50 33.936751 -118.391086 264 237ft 62kts
31-Aug-18 13:50 33.935953 -118.410295 260 647ft 83kts
31-Aug-18 13:51 33.933609 -118.441420 263 1155ft 95kts
31-Aug-18 13:53 33.931525 -118.478077 263 1734ft 93kts
31-Aug-18 13:53 33.930058 -118.503927 263 2148ft 92kts
31-Aug-18 13:55 33.927930 -118.540686 264 2501ft 103kts
31-Aug-18 13:55 33.926165 -118.570142 264 2500ft 107kts
31-Aug-18 13:56 33.924025 -118.606180 264 2497ft 108kts
31-Aug-18 13:57 33.921918 -118.642395 264 2493ft 108kts
31-Aug-18 13:58 33.919889 -118.677795 264 2497ft 108kts
31-Aug-18 13:59 33.917850 -118.714031 264 2503ft 108kts
31-Aug-18 14:00 33.908137 -118.744714 193 2506ft 110kts
31-Aug-18 14:01 33.881696 -118.732847 127 2773ft 101kts
31-Aug-18 14:02 33.866888 -118.703742 124 3478ft 106kts
31-Aug-18 14:03 33.850345 -118.671581 125 3759ft 124kts
31-Aug-18 14:04 33.831806 -118.636410 125 3571ft 125kts
31-Aug-18 14:05 33.813723 -118.601542 124 3526ft 119kts
31-Aug-18 14:06 33.796316 -118.567640 124 3532ft 119kts
31-Aug-18 14:07 33.778768 -118.533845 124 3539ft 119kts
31-Aug-18 14:08 33.761150 -118.500225 124 3546ft 120kts
31-Aug-18 14:09 33.743313 -118.466376 124 3555ft 120kts
31-Aug-18 14:10 33.725548 -118.432658 124 3563ft 120kts
31-Aug-18 14:11 33.706095 -118.400494 138 3571ft 118kts
31-Aug-18 14:12 33.682641 -118.372776 138 3580ft 118kts
31-Aug-18 14:13 33.660183 -118.346330 139 3554ft 121kts
31-Aug-18 14:14 33.636632 -118.317225 137 3500ft 119kts
31-Aug-18 14:15 33.613938 -118.288641 137 3499ft 118kts
31-Aug-18 14:16 33.591684 -118.260300 137 3495ft 117kts
31-Aug-18 14:17 33.569518 -118.232111 137 3491ft 116kts
31-Aug-18 14:18 33.547290 -118.204262 137 3488ft 115kts
31-Aug-18 14:19 33.525064 -118.176547 137 3486ft 115kts
31-Aug-18 14:20 33.502932 -118.148810 137 3484ft 115kts
31-Aug-18 14:21 33.480864 -118.121358 137 3482ft 114kts
31-Aug-18 14:22 33.458714 -118.094039 137 3480ft 114kts
31-Aug-18 14:23 33.436638 -118.066698 136 3479ft 114kts
31-Aug-18 14:24 33.414773 -118.039248 137 3478ft 114kts
31-Aug-18 14:25 33.392729 -118.011682 137 3477ft 114kts
31-Aug-18 14:26 33.371038 -117.984653 137 3476ft 115kts
31-Aug-18 14:27 33.349765 -117.958034 136 3873ft 113kts
31-Aug-18 14:28 33.327810 -117.930734 136 4466ft 111kts
31-Aug-18 14:29 33.306997 -117.904813 136 5163ft 106kts
31-Aug-18 14:30 33.285108 -117.877887 137 5524ft 126kts
31-Aug-18 14:31 33.259558 -117.847116 137 5624ft 133kts
31-Aug-18 14:32 33.233621 -117.815995 137 5838ft 124kts
31-Aug-18 14:33 33.210784 -117.788362 137 6436ft 112kts
31-Aug-18 14:34 33.189252 -117.762343 137 7036ft 109kts
31-Aug-18 14:35 33.172788 -117.731619 119 7482ft 121kts
31-Aug-18 14:36 33.155630 -117.694671 119 7489ft 124kts
31-Aug-18 14:37 33.140792 -117.658314 113 7494ft 121kts
31-Aug-18 14:38 33.131137 -117.618977 102 7172ft 135kts
31-Aug-18 14:39 33.116743 -117.577428 128 6482ft 139kts
31-Aug-18 14:40 33.092551 -117.541887 136 5791ft 138kts
31-Aug-18 14:41 33.065930 -117.509042 136 5097ft 137kts
31-Aug-18 14:42 33.039672 -117.476365 136 4406ft 136kts
31-Aug-18 14:43 33.013447 -117.444437 142 3710ft 132kts
31-Aug-18 14:44 32.987432 -117.418475 143 3280ft 122kts
31-Aug-18 14:45 32.961911 -117.393355 144 3001ft 114kts
31-Aug-18 14:46 32.938791 -117.370713 145 3001ft 104kts
31-Aug-18 14:47 32.915156 -117.351597 150 3004ft 102kts
31-Aug-18 14:48 32.890985 -117.333127 153 2687ft 112kts
31-Aug-18 14:49 32.865498 -117.315855 158 2097ft 98kts
31-Aug-18 14:50 32.842883 -117.302367 158 2012ft 88kts
31-Aug-18 14:51 32.820521 -117.288987 158 1948ft 95kts
31-Aug-18 14:52 32.795920 -117.274604 158 1648ft 100kts
31-Aug-18 14:53 32.771308 -117.260245 158 1447ft 92kts
31-Aug-18 14:54 32.759338 -117.253077 158 1443ft 86kts
31-Aug-18 14:55 32.738667 -117.236869 137 1328ft 91kts
31-Aug-18 14:56 32.722832 -117.214412 134 1323ft 86kts
31-Aug-18 14:57 32.716168 -117.187371 97 1321ft 88kts
31-Aug-18 14:58 32.713781 -117.158504 97 1319ft 87kts
31-Aug-18 14:59 32.728003 -117.143241 306 1003ft 95kts
31-Aug-18 15:00 32.728881 -117.169184 278 424ft 54kts
31-Aug-18 15:01 32.732132 -117.183625 284 15ft 17kts
31-Aug-18 15:02 32.733714 -117.184851 331 17ft 7kts

Navigation Log

Ident Type
Flight plan parsing failed, navigation log unavailable